sensor_id;sensor_type;location;lat;lon;timestamp;pressure;altitude;pressure_sealevel;temperature;humidity
21129;BME280;10722;51.910;8.352;2023-07-31T00:00:26;100327.94;;;15.25;100.00
21129;BME280;10722;51.910;8.352;2023-07-31T00:03:11;100324.47;;;15.30;100.00
21129;BME280;10722;51.910;8.352;2023-07-31T00:05:57;100323.59;;;15.28;100.00
21129;BME280;10722;51.910;8.352;2023-07-31T00:08:42;100322.72;;;15.32;100.00
21129;BME280;10722;51.910;8.352;2023-07-31T00:11:27;100320.06;;;15.35;100.00
21129;BME280;10722;51.910;8.352;2023-07-31T00:14:12;100318.34;;;15.31;100.00
21129;BME280;10722;51.910;8.352;2023-07-31T00:16:57;100314.03;;;15.30;100.00
21129;BME280;10722;51.910;8.352;2023-07-31T00:19:42;100317.53;;;15.25;100.00
21129;BME280;10722;51.910;8.352;2023-07-31T00:22:28;100314.00;;;15.33;100.00
21129;BME280;10722;51.910;8.352;2023-07-31T00:25:13;100321.84;;;15.30;100.00
21129;BME280;10722;51.910;8.352;2023-07-31T00:27:58;100320.09;;;15.30;100.00
21129;BME280;10722;51.910;8.352;2023-07-31T00:30:43;100321.81;;;15.31;100.00
21129;BME280;10722;51.910;8.352;2023-07-31T00:33:31;100326.19;;;15.31;100.00
21129;BME280;10722;51.910;8.352;2023-07-31T00:36:16;100317.47;;;15.33;100.00
21129;BME280;10722;51.910;8.352;2023-07-31T00:39:01;100317.47;;;15.35;100.00
21129;BME280;10722;51.910;8.352;2023-07-31T00:41:45;100319.25;;;15.30;100.00
21129;BME280;10722;51.910;8.352;2023-07-31T00:44:30;100311.44;;;15.28;100.00
21129;BME280;10722;51.910;8.352;2023-07-31T00:47:15;100324.47;;;15.30;100.00
21129;BME280;10722;51.910;8.352;2023-07-31T00:50:00;100323.59;;;15.29;100.00
21129;BME280;10722;51.910;8.352;2023-07-31T00:52:45;100323.53;;;15.35;100.00
21129;BME280;10722;51.910;8.352;2023-07-31T00:55:31;100319.25;;;15.30;100.00
21129;BME280;10722;51.910;8.352;2023-07-31T00:58:16;100324.56;;;15.16;100.00
21129;BME280;10722;51.910;8.352;2023-07-31T01:01:01;100323.72;;;15.12;100.00
21129;BME280;10722;51.910;8.352;2023-07-31T01:03:46;100317.72;;;15.01;100.00
21129;BME280;10722;51.910;8.352;2023-07-31T01:06:45;100318.75;;;14.74;100.00
21129;BME280;10722;51.910;8.352;2023-07-31T01:09:47;100317.94;;;14.66;100.00
21129;BME280;10722;51.910;8.352;2023-07-31T01:12:33;100306.66;;;14.70;100.00
21129;BME280;10722;51.910;8.352;2023-07-31T01:15:20;100319.69;;;14.64;100.00
21129;BME280;10722;51.910;8.352;2023-07-31T01:18:05;100317.13;;;14.57;100.00
21129;BME280;10722;51.910;8.352;2023-07-31T01:21:00;100308.47;;;14.48;100.00
21129;BME280;10722;51.910;8.352;2023-07-31T01:27:10;100305.88;;;14.48;100.00
21129;BME280;10722;51.910;8.352;2023-07-31T01:30:05;100307.63;;;14.43;100.00
21129;BME280;10722;51.910;8.352;2023-07-31T01:32:52;100299.84;;;14.37;100.00
21129;BME280;10722;51.910;8.352;2023-07-31T01:35:39;100292.94;;;14.31;100.00
21129;BME280;10722;51.910;8.352;2023-07-31T01:38:25;100295.56;;;14.19;100.00
21129;BME280;10722;51.910;8.352;2023-07-31T01:41:11;100282.63;;;14.09;100.00
21129;BME280;10722;51.910;8.352;2023-07-31T01:43:56;100282.63;;;14.06;100.00
21129;BME280;10722;51.910;8.352;2023-07-31T01:46:42;100285.22;;;14.11;100.00
21129;BME280;10722;51.910;8.352;2023-07-31T01:49:27;100283.50;;;14.04;100.00
21129;BME280;10722;51.910;8.352;2023-07-31T01:52:12;100283.50;;;14.05;100.00
21129;BME280;10722;51.910;8.352;2023-07-31T01:54:57;100272.22;;;14.02;100.00
21129;BME280;10722;51.910;8.352;2023-07-31T01:57:42;100280.03;;;14.08;100.00
21129;BME280;10722;51.910;8.352;2023-07-31T02:00:27;100275.69;;;14.11;100.00
21129;BME280;10722;51.910;8.352;2023-07-31T02:03:12;100268.75;;;14.07;100.00
21129;BME280;10722;51.910;8.352;2023-07-31T02:05:58;100269.63;;;14.11;100.00
21129;BME280;10722;51.910;8.352;2023-07-31T02:08:43;100262.66;;;14.11;100.00
21129;BME280;10722;51.910;8.352;2023-07-31T02:11:28;100260.91;;;14.15;100.00
21129;BME280;10722;51.910;8.352;2023-07-31T02:14:13;100252.22;;;14.16;100.00
21129;BME280;10722;51.910;8.352;2023-07-31T02:16:58;100269.59;;;14.14;100.00
21129;BME280;10722;51.910;8.352;2023-07-31T02:19:43;100260.03;;;14.21;100.00
21129;BME280;10722;51.910;8.352;2023-07-31T02:22:28;100257.44;;;14.19;100.00
21129;BME280;10722;51.910;8.352;2023-07-31T02:25:13;100266.13;;;14.15;100.00
21129;BME280;10722;51.910;8.352;2023-07-31T02:27:59;100258.28;;;14.23;100.00
21129;BME280;10722;51.910;8.352;2023-07-31T02:30:44;100264.34;;;14.19;100.00
21129;BME280;10722;51.910;8.352;2023-07-31T02:33:30;100252.25;;;14.13;100.00
21129;BME280;10722;51.910;8.352;2023-07-31T02:36:15;100253.09;;;14.15;100.00
21129;BME280;10722;51.910;8.352;2023-07-31T02:39:00;100246.16;;;14.16;100.00
21129;BME280;10722;51.910;8.352;2023-07-31T02:41:44;100252.25;;;14.19;100.00
21129;BME280;10722;51.910;8.352;2023-07-31T02:44:29;100237.47;;;14.23;100.00
21129;BME280;10722;51.910;8.352;2023-07-31T02:47:14;100239.19;;;14.25;100.00
21129;BME280;10722;51.910;8.352;2023-07-31T02:49:59;100241.75;;;14.31;100.00
21129;BME280;10722;51.910;8.352;2023-07-31T02:52:44;100240.84;;;14.42;100.00
21129;BME280;10722;51.910;8.352;2023-07-31T02:55:29;100240.78;;;14.46;100.00
21129;BME280;10722;51.910;8.352;2023-07-31T02:58:14;100251.16;;;14.60;100.00
21129;BME280;10722;51.910;8.352;2023-07-31T03:00:59;100247.56;;;14.75;100.00
21129;BME280;10722;51.910;8.352;2023-07-31T03:03:45;100253.53;;;14.91;100.00
21129;BME280;10722;51.910;8.352;2023-07-31T03:06:30;100252.53;;;15.09;100.00
21129;BME280;10722;51.910;8.352;2023-07-31T03:09:15;100254.22;;;15.16;100.00
21129;BME280;10722;51.910;8.352;2023-07-31T03:11:59;100251.47;;;15.28;100.00
21129;BME280;10722;51.910;8.352;2023-07-31T03:14:44;100251.41;;;15.36;100.00
21129;BME280;10722;51.910;8.352;2023-07-31T03:17:29;100254.81;;;15.44;100.00
21129;BME280;10722;51.910;8.352;2023-07-31T03:20:14;100246.09;;;15.46;100.00
21129;BME280;10722;51.910;8.352;2023-07-31T03:23:04;100243.44;;;15.54;100.00
21129;BME280;10722;51.910;8.352;2023-07-31T03:25:59;100242.53;;;15.55;100.00
21129;BME280;10722;51.910;8.352;2023-07-31T03:28:44;100228.63;;;15.56;100.00
21129;BME280;10722;51.910;8.352;2023-07-31T03:31:29;100231.25;;;15.55;100.00
21129;BME280;10722;51.910;8.352;2023-07-31T03:34:14;100233.91;;;15.50;100.00
21129;BME280;10722;51.910;8.352;2023-07-31T03:36:59;100225.19;;;15.54;100.00
21129;BME280;10722;51.910;8.352;2023-07-31T03:39:44;100222.56;;;15.53;100.00
21129;BME280;10722;51.910;8.352;2023-07-31T03:42:29;100224.25;;;15.57;100.00
21129;BME280;10722;51.910;8.352;2023-07-31T03:45:14;100216.50;;;15.52;100.00
21129;BME280;10722;51.910;8.352;2023-07-31T03:47:59;100219.97;;;15.53;100.00
21129;BME280;10722;51.910;8.352;2023-07-31T03:50:44;100212.97;;;15.56;100.00
21129;BME280;10722;51.910;8.352;2023-07-31T03:53:29;100211.25;;;15.55;100.00
21129;BME280;10722;51.910;8.352;2023-07-31T03:56:14;100197.34;;;15.53;100.00
21129;BME280;10722;51.910;8.352;2023-07-31T03:58:59;100201.72;;;15.53;100.00
21129;BME280;10722;51.910;8.352;2023-07-31T04:01:44;100211.31;;;15.47;100.00
21129;BME280;10722;51.910;8.352;2023-07-31T04:04:29;100213.03;;;15.50;100.00
21129;BME280;10722;51.910;8.352;2023-07-31T04:07:14;100214.75;;;15.51;100.00
21129;BME280;10722;51.910;8.352;2023-07-31T04:09:59;100205.22;;;15.50;100.00
21129;BME280;10722;51.910;8.352;2023-07-31T04:12:44;100209.56;;;15.48;100.00
21129;BME280;10722;51.910;8.352;2023-07-31T04:15:29;100213.94;;;15.47;100.00
21129;BME280;10722;51.910;8.352;2023-07-31T04:18:14;100214.75;;;15.51;100.00
21129;BME280;10722;51.910;8.352;2023-07-31T04:20:59;100212.19;;;15.48;100.00
21129;BME280;10722;51.910;8.352;2023-07-31T04:23:44;100208.78;;;15.40;100.00
21129;BME280;10722;51.910;8.352;2023-07-31T04:26:29;100203.50;;;15.47;100.00
21129;BME280;10722;51.910;8.352;2023-07-31T04:29:14;100213.09;;;15.44;100.00
21129;BME280;10722;51.910;8.352;2023-07-31T04:31:59;100202.69;;;15.44;100.00
21129;BME280;10722;51.910;8.352;2023-07-31T04:34:44;100203.56;;;15.43;100.00
21129;BME280;10722;51.910;8.352;2023-07-31T04:37:29;100211.38;;;15.46;100.00
21129;BME280;10722;51.910;8.352;2023-07-31T04:40:15;100197.47;;;15.44;100.00
21129;BME280;10722;51.910;8.352;2023-07-31T04:43:01;100197.44;;;15.47;100.00
21129;BME280;10722;51.910;8.352;2023-07-31T04:45:46;100198.25;;;15.51;100.00
21129;BME280;10722;51.910;8.352;2023-07-31T04:48:31;100199.13;;;15.51;100.00
21129;BME280;10722;51.910;8.352;2023-07-31T04:51:17;100190.34;;;15.58;100.00
21129;BME280;10722;51.910;8.352;2023-07-31T04:54:01;100184.22;;;15.62;100.00
21129;BME280;10722;51.910;8.352;2023-07-31T04:56:46;100179.06;;;15.56;100.00
21129;BME280;10722;51.910;8.352;2023-07-31T04:59:31;100182.53;;;15.60;100.00
21129;BME280;10722;51.910;8.352;2023-07-31T05:02:17;100183.38;;;15.59;100.00
21129;BME280;10722;51.910;8.352;2023-07-31T05:05:02;100172.09;;;15.57;100.00
21129;BME280;10722;51.910;8.352;2023-07-31T05:07:47;100165.06;;;15.68;100.00
21129;BME280;10722;51.910;8.352;2023-07-31T05:10:32;100170.28;;;15.66;100.00
21129;BME280;10722;51.910;8.352;2023-07-31T05:13:17;100169.41;;;15.64;100.00
21129;BME280;10722;51.910;8.352;2023-07-31T05:16:02;100165.03;;;15.71;100.00
21129;BME280;10722;51.910;8.352;2023-07-31T05:18:47;100164.16;;;15.72;100.00
21129;BME280;10722;51.910;8.352;2023-07-31T05:21:33;100164.06;;;15.80;100.00
21129;BME280;10722;51.910;8.352;2023-07-31T05:24:17;100157.91;;;15.82;100.00
21129;BME280;10722;51.910;8.352;2023-07-31T05:27:03;100154.56;;;15.73;100.00
21129;BME280;10722;51.910;8.352;2023-07-31T05:29:48;100162.31;;;15.79;100.00
21129;BME280;10722;51.910;8.352;2023-07-31T05:32:36;100167.47;;;15.83;100.00
21129;BME280;10722;51.910;8.352;2023-07-31T05:35:22;100150.03;;;15.87;100.00
21129;BME280;10722;51.910;8.352;2023-07-31T05:38:07;100151.84;;;15.82;100.00
21129;BME280;10722;51.910;8.352;2023-07-31T05:40:59;100151.84;;;15.82;100.00
21129;BME280;10722;51.910;8.352;2023-07-31T05:43:45;100147.47;;;15.82;100.00
21129;BME280;10722;51.910;8.352;2023-07-31T05:46:30;100140.50;;;15.86;100.00
21129;BME280;10722;51.910;8.352;2023-07-31T05:49:15;100148.31;;;15.86;100.00
21129;BME280;10722;51.910;8.352;2023-07-31T05:52:00;100157.00;;;15.85;100.00
21129;BME280;10722;51.910;8.352;2023-07-31T05:54:45;100143.97;;;15.86;100.00
21129;BME280;10722;51.910;8.352;2023-07-31T05:57:30;100133.63;;;15.79;100.00
21129;BME280;10722;51.910;8.352;2023-07-31T06:00:15;100149.28;;;15.80;100.00
21129;BME280;10722;51.910;8.352;2023-07-31T06:03:00;100143.97;;;15.86;100.00
21129;BME280;10722;51.910;8.352;2023-07-31T06:05:46;100143.88;;;15.93;100.00
21129;BME280;10722;51.910;8.352;2023-07-31T06:08:31;100140.31;;;16.00;100.00
21129;BME280;10722;51.910;8.352;2023-07-31T06:11:16;100138.56;;;15.99;100.00
21129;BME280;10722;51.910;8.352;2023-07-31T06:14:01;100118.53;;;16.02;100.00
21129;BME280;10722;51.910;8.352;2023-07-31T06:16:46;100128.19;;;15.96;100.00
21129;BME280;10722;51.910;8.352;2023-07-31T06:19:31;100124.66;;;16.00;100.00
21129;BME280;10722;51.910;8.352;2023-07-31T06:22:16;100131.50;;;16.07;100.00
21129;BME280;10722;51.910;8.352;2023-07-31T06:25:01;100123.66;;;16.08;100.00
21129;BME280;10722;51.910;8.352;2023-07-31T06:27:46;100122.72;;;16.14;100.00
21129;BME280;10722;51.910;8.352;2023-07-31T06:30:32;100117.50;;;16.14;100.00
21129;BME280;10722;51.910;8.352;2023-07-31T06:33:17;100120.16;;;16.09;100.00
21129;BME280;10722;51.910;8.352;2023-07-31T06:36:02;100121.88;;;16.10;100.00
21129;BME280;10722;51.910;8.352;2023-07-31T06:38:47;100114.88;;;16.14;100.00
21129;BME280;10722;51.910;8.352;2023-07-31T06:41:32;100114.84;;;16.16;100.00
21129;BME280;10722;51.910;8.352;2023-07-31T06:44:18;100101.75;;;16.19;100.00
21129;BME280;10722;51.910;8.352;2023-07-31T06:47:04;100113.09;;;16.16;100.00
21129;BME280;10722;51.910;8.352;2023-07-31T06:49:49;100107.06;;;16.14;100.00
21129;BME280;10722;51.910;8.352;2023-07-31T06:52:34;100113.19;;;16.11;100.00
21129;BME280;10722;51.910;8.352;2023-07-31T06:55:20;100115.78;;;16.11;100.00
21129;BME280;10722;51.910;8.352;2023-07-31T06:58:06;100119.25;;;16.10;100.00
21129;BME280;10722;51.910;8.352;2023-07-31T07:00:51;100120.13;;;16.12;100.00
21129;BME280;10722;51.910;8.352;2023-07-31T07:03:36;100125.38;;;16.09;100.00
21129;BME280;10722;51.910;8.352;2023-07-31T07:06:22;100125.41;;;16.08;100.00
21129;BME280;10722;51.910;8.352;2023-07-31T07:09:07;100130.69;;;16.02;100.00
21129;BME280;10722;51.910;8.352;2023-07-31T07:11:53;100124.56;;;16.06;100.00
21129;BME280;10722;51.910;8.352;2023-07-31T07:14:38;100139.31;;;16.08;100.00
21129;BME280;10722;51.910;8.352;2023-07-31T07:17:23;100140.19;;;16.07;100.00
21129;BME280;10722;51.910;8.352;2023-07-31T07:20:09;100138.44;;;16.09;100.00
21129;BME280;10722;51.910;8.352;2023-07-31T07:22:54;100139.31;;;16.08;100.00
21129;BME280;10722;51.910;8.352;2023-07-31T07:25:39;100148.91;;;16.05;100.00
21129;BME280;10722;51.910;8.352;2023-07-31T07:28:24;100170.69;;;16.04;100.00
21129;BME280;10722;51.910;8.352;2023-07-31T07:31:10;100181.25;;;15.95;100.00
21129;BME280;10722;51.910;8.352;2023-07-31T07:33:56;100178.72;;;15.87;100.00
21129;BME280;10722;51.910;8.352;2023-07-31T07:36:41;100171.91;;;15.77;100.00
21129;BME280;10722;51.910;8.352;2023-07-31T07:39:27;100170.22;;;15.74;100.00
21129;BME280;10722;51.910;8.352;2023-07-31T07:42:12;100177.19;;;15.71;100.00
21129;BME280;10722;51.910;8.352;2023-07-31T07:44:57;100178.09;;;15.69;100.00
21129;BME280;10722;51.910;8.352;2023-07-31T07:47:43;100183.38;;;15.60;100.00
21129;BME280;10722;51.910;8.352;2023-07-31T07:50:28;100169.50;;;15.60;100.00
21129;BME280;10722;51.910;8.352;2023-07-31T07:53:14;100181.63;;;15.61;100.00
21129;BME280;10722;51.910;8.352;2023-07-31T07:55:59;100172.03;;;15.64;100.00
21129;BME280;10722;51.910;8.352;2023-07-31T07:58:44;100176.38;;;15.65;100.00
21129;BME280;10722;51.910;8.352;2023-07-31T08:01:29;100177.19;;;15.71;100.00
21129;BME280;10722;51.910;8.352;2023-07-31T08:04:14;100175.44;;;15.74;100.00
21129;BME280;10722;51.910;8.352;2023-07-31T08:07:00;100174.47;;;15.81;100.00
21129;BME280;10722;51.910;8.352;2023-07-31T08:09:45;100167.50;;;15.82;100.00
21129;BME280;10722;51.910;8.352;2023-07-31T08:12:30;100156.97;;;15.91;100.00
21129;BME280;10722;51.910;8.352;2023-07-31T08:15:15;100155.22;;;15.91;100.00
21129;BME280;10722;51.910;8.352;2023-07-31T08:18:01;100155.13;;;15.96;100.00
21129;BME280;10722;51.910;8.352;2023-07-31T08:20:46;100156.75;;;16.06;100.00
21129;BME280;10722;51.910;8.352;2023-07-31T08:23:32;100153.31;;;16.01;100.00
21129;BME280;10722;51.910;8.352;2023-07-31T08:26:18;100151.53;;;16.05;100.00
21129;BME280;10722;51.910;8.352;2023-07-31T08:29:03;100148.19;;;15.95;100.00
21129;BME280;10722;51.910;8.352;2023-07-31T08:31:49;100130.78;;;15.96;100.00
21129;BME280;10722;51.910;8.352;2023-07-31T08:34:34;100130.75;;;16.00;100.00
21129;BME280;10722;51.910;8.352;2023-07-31T08:37:19;100135.91;;;16.03;100.00
21129;BME280;10722;51.910;8.352;2023-07-31T08:40:05;100140.28;;;16.03;100.00
21129;BME280;10722;51.910;8.352;2023-07-31T08:42:53;100134.97;;;16.07;100.00
21129;BME280;10722;51.910;8.352;2023-07-31T08:45:41;100127.97;;;16.11;100.00
21129;BME280;10722;51.910;8.352;2023-07-31T08:48:28;100140.13;;;16.13;100.00
21129;BME280;10722;51.910;8.352;2023-07-31T08:51:14;100141.88;;;16.11;100.00
21129;BME280;10722;51.910;8.352;2023-07-31T08:54:01;100140.19;;;16.09;100.00
21129;BME280;10722;51.910;8.352;2023-07-31T08:56:46;100126.19;;;16.14;100.00
21129;BME280;10722;51.910;8.352;2023-07-31T08:59:34;100141.88;;;16.11;100.00
21129;BME280;10722;51.910;8.352;2023-07-31T09:02:20;100141.00;;;16.12;100.00
21129;BME280;10722;51.910;8.352;2023-07-31T09:05:06;100133.09;;;16.17;100.00
21129;BME280;10722;51.910;8.352;2023-07-31T09:07:52;100125.22;;;16.19;100.00
21129;BME280;10722;51.910;8.352;2023-07-31T09:10:44;100135.78;;;16.12;100.00
21129;BME280;10722;51.910;8.352;2023-07-31T09:13:30;100133.06;;;16.20;100.00
21129;BME280;10722;51.910;8.352;2023-07-31T09:16:15;100122.41;;;16.32;100.00
21129;BME280;10722;51.910;8.352;2023-07-31T09:19:01;100117.34;;;16.25;100.00
21129;BME280;10722;51.910;8.352;2023-07-31T09:21:49;100122.56;;;16.22;100.00
21129;BME280;10722;51.910;8.352;2023-07-31T09:24:35;100111.97;;;16.34;100.00
21129;BME280;10722;51.910;8.352;2023-07-31T09:27:20;100105.88;;;16.33;100.00
21129;BME280;10722;51.910;8.352;2023-07-31T09:30:06;100107.59;;;16.36;100.00
21129;BME280;10722;51.910;8.352;2023-07-31T09:33:00;100105.63;;;16.49;100.00
21129;BME280;10722;51.910;8.352;2023-07-31T09:35:47;100089.06;;;16.50;100.00
21129;BME280;10722;51.910;8.352;2023-07-31T09:38:32;100089.03;;;16.51;100.00
21129;BME280;10722;51.910;8.352;2023-07-31T09:41:17;100091.03;;;16.37;100.00
21129;BME280;10722;51.910;8.352;2023-07-31T09:44:02;100077.91;;;16.40;100.00
21129;BME280;10722;51.910;8.352;2023-07-31T09:46:48;100079.63;;;16.41;100.00
21129;BME280;10722;51.910;8.352;2023-07-31T09:49:34;100070.81;;;16.48;100.00
21129;BME280;10722;51.910;8.352;2023-07-31T09:52:19;100070.84;;;16.47;100.00
21129;BME280;10722;51.910;8.352;2023-07-31T09:55:05;100068.28;;;16.45;100.00
21129;BME280;10722;51.910;8.352;2023-07-31T09:57:50;100071.81;;;16.41;100.00
21129;BME280;10722;51.910;8.352;2023-07-31T10:00:37;100067.47;;;16.42;100.00
21129;BME280;10722;51.910;8.352;2023-07-31T10:03:22;100068.31;;;16.42;100.00
21129;BME280;10722;51.910;8.352;2023-07-31T10:06:09;100067.38;;;16.46;100.00
21129;BME280;10722;51.910;8.352;2023-07-31T10:08:54;100071.75;;;16.44;100.00
21129;BME280;10722;51.910;8.352;2023-07-31T10:11:47;100069.13;;;16.44;100.00
21129;BME280;10722;51.910;8.352;2023-07-31T10:14:37;100079.47;;;16.52;100.00
21129;BME280;10722;51.910;8.352;2023-07-31T10:17:24;100077.97;;;16.35;100.00
21129;BME280;10722;51.910;8.352;2023-07-31T10:20:10;100070.88;;;16.45;100.00
21129;BME280;10722;51.910;8.352;2023-07-31T10:22:56;100105.94;;;16.30;100.00
21129;BME280;10722;51.910;8.352;2023-07-31T10:25:42;100071.00;;;16.39;100.00
21129;BME280;10722;51.910;8.352;2023-07-31T10:28:29;100060.50;;;16.41;100.00
21129;BME280;10722;51.910;8.352;2023-07-31T10:31:15;100075.38;;;16.35;100.00
21129;BME280;10722;51.910;8.352;2023-07-31T10:34:01;100066.78;;;16.30;100.00
21129;BME280;10722;51.910;8.352;2023-07-31T10:36:46;100069.41;;;16.29;100.00
21129;BME280;10722;51.910;8.352;2023-07-31T10:39:36;100070.16;;;16.35;100.00
21129;BME280;10722;51.910;8.352;2023-07-31T10:42:28;100061.97;;;16.55;100.00
21129;BME280;10722;51.910;8.352;2023-07-31T10:45:13;100046.31;;;16.57;100.00
21129;BME280;10722;51.910;8.352;2023-07-31T10:50:54;100043.50;;;16.68;100.00
21129;BME280;10722;51.910;8.352;2023-07-31T10:53:40;100043.38;;;16.75;100.00
21129;BME280;10722;51.910;8.352;2023-07-31T10:56:25;100040.78;;;16.74;100.00
21129;BME280;10722;51.910;8.352;2023-07-31T10:59:11;100033.91;;;16.68;100.00
21129;BME280;10722;51.910;8.352;2023-07-31T11:01:56;100034.81;;;16.67;100.00
21129;BME280;10722;51.910;8.352;2023-07-31T11:04:41;100032.41;;;16.55;100.00
21129;BME280;10722;51.910;8.352;2023-07-31T11:07:46;100022.88;;;16.52;100.00
21129;BME280;10722;51.910;8.352;2023-07-31T11:10:31;100029.66;;;16.64;100.00
21129;BME280;10722;51.910;8.352;2023-07-31T11:13:16;100023.31;;;16.79;100.00
21129;BME280;10722;51.910;8.352;2023-07-31T11:16:02;100017.19;;;16.80;100.00
21129;BME280;10722;51.910;8.352;2023-07-31T11:18:48;100018.00;;;16.82;100.00
21129;BME280;10722;51.910;8.352;2023-07-31T11:21:34;100015.31;;;16.87;100.00
21129;BME280;10722;51.910;8.352;2023-07-31T11:24:19;100016.41;;;16.73;100.00
21129;BME280;10722;51.910;8.352;2023-07-31T11:27:07;100017.47;;;16.63;100.00
21129;BME280;10722;51.910;8.352;2023-07-31T11:29:52;100025.16;;;16.71;100.00
21129;BME280;10722;51.910;8.352;2023-07-31T11:32:37;100027.78;;;16.71;100.00
21129;BME280;10722;51.910;8.352;2023-07-31T11:35:23;100022.69;;;16.63;100.00
21129;BME280;10722;51.910;8.352;2023-07-31T11:38:08;100013.94;;;16.66;100.00
21129;BME280;10722;51.910;8.352;2023-07-31T11:40:55;100016.34;;;16.75;100.00
21129;BME280;10722;51.910;8.352;2023-07-31T11:43:41;100019.59;;;16.89;100.00
21129;BME280;10722;51.910;8.352;2023-07-31T11:46:27;100016.34;;;16.78;100.00
21129;BME280;10722;51.910;8.352;2023-07-31T11:49:13;100017.19;;;16.80;100.00
21129;BME280;10722;51.910;8.352;2023-07-31T11:51:58;100004.75;;;16.91;100.00
21129;BME280;10722;51.910;8.352;2023-07-31T11:54:44;100003.75;;;16.98;100.00
21129;BME280;10722;51.910;8.352;2023-07-31T11:57:29;100008.16;;;16.96;100.00
21129;BME280;10722;51.910;8.352;2023-07-31T12:00:14;100007.31;;;16.94;100.00
21129;BME280;10722;51.910;8.352;2023-07-31T12:03:01;100002.13;;;16.93;100.00
21129;BME280;10722;51.910;8.352;2023-07-31T12:05:47;99997.06;;;16.85;100.00
21129;BME280;10722;51.910;8.352;2023-07-31T12:08:32;100004.75;;;16.93;100.00
21129;BME280;10722;51.910;8.352;2023-07-31T12:11:17;100003.72;;;17.00;100.00
21129;BME280;10722;51.910;8.352;2023-07-31T12:14:04;99999.25;;;17.07;100.00
21129;BME280;10722;51.910;8.352;2023-07-31T12:16:54;99994.94;;;17.04;100.00
21129;BME280;10722;51.910;8.352;2023-07-31T12:19:39;99988.88;;;17.02;100.00
21129;BME280;10722;51.910;8.352;2023-07-31T12:22:26;99989.56;;;17.10;100.00
21129;BME280;10722;51.910;8.352;2023-07-31T12:25:15;99997.63;;;17.01;100.00
21129;BME280;10722;51.910;8.352;2023-07-31T12:28:04;100001.94;;;17.00;100.00
21129;BME280;10722;51.910;8.352;2023-07-31T12:30:49;100021.47;;;16.83;100.00
21129;BME280;10722;51.910;8.352;2023-07-31T12:33:36;100009.19;;;16.88;100.00
21129;BME280;10722;51.910;8.352;2023-07-31T12:36:23;100009.16;;;16.89;100.00
21129;BME280;10722;51.910;8.352;2023-07-31T12:39:09;100009.19;;;16.88;100.00
21129;BME280;10722;51.910;8.352;2023-07-31T12:41:54;100013.56;;;16.87;100.00
21129;BME280;10722;51.910;8.352;2023-07-31T12:44:39;100016.31;;;16.81;100.00
21129;BME280;10722;51.910;8.352;2023-07-31T12:47:24;100015.34;;;16.85;100.00
21129;BME280;10722;51.910;8.352;2023-07-31T12:50:10;100012.78;;;16.82;100.00
21129;BME280;10722;51.910;8.352;2023-07-31T12:52:54;100019.84;;;16.78;100.00
21129;BME280;10722;51.910;8.352;2023-07-31T12:55:40;100013.72;;;16.79;100.00
21129;BME280;10722;51.910;8.352;2023-07-31T12:58:25;100010.56;;;17.06;100.00
21129;BME280;10722;51.910;8.352;2023-07-31T13:01:10;99996.16;;;17.28;100.00
21129;BME280;10722;51.910;8.352;2023-07-31T13:03:56;99977.28;;;17.54;100.00
21129;BME280;10722;51.910;8.352;2023-07-31T13:06:41;99973.59;;;17.63;100.00
21129;BME280;10722;51.910;8.352;2023-07-31T13:09:27;99969.75;;;17.78;100.00
21129;BME280;10722;51.910;8.352;2023-07-31T13:12:12;99957.31;;;17.89;100.00
21129;BME280;10722;51.910;8.352;2023-07-31T13:14:57;99950.75;;;18.07;100.00
21129;BME280;10722;51.910;8.352;2023-07-31T13:17:42;99925.47;;;18.38;100.00
21129;BME280;10722;51.910;8.352;2023-07-31T13:20:28;99918.81;;;18.58;100.00
21129;BME280;10722;51.910;8.352;2023-07-31T13:23:13;99911.84;;;18.58;100.00
21129;BME280;10722;51.910;8.352;2023-07-31T13:25:58;99893.91;;;18.43;100.00
21129;BME280;10722;51.910;8.352;2023-07-31T13:28:43;99876.50;;;18.42;100.00
21129;BME280;10722;51.910;8.352;2023-07-31T13:31:28;99878.97;;;18.47;100.00
21129;BME280;10722;51.910;8.352;2023-07-31T13:34:13;99867.34;;;18.57;100.00
21129;BME280;10722;51.910;8.352;2023-07-31T13:36:58;99854.59;;;18.76;100.00
21129;BME280;10722;51.910;8.352;2023-07-31T13:39:43;99835.31;;;18.78;100.00
21129;BME280;10722;51.910;8.352;2023-07-31T13:42:28;99850.25;;;18.75;100.00
21129;BME280;10722;51.910;8.352;2023-07-31T13:45:14;99840.75;;;18.71;100.00
21129;BME280;10722;51.910;8.352;2023-07-31T13:47:59;99850.84;;;18.85;100.00
21129;BME280;10722;51.910;8.352;2023-07-31T13:50:44;99846.69;;;18.77;100.00
21129;BME280;10722;51.910;8.352;2023-07-31T13:53:29;99854.34;;;18.84;100.00
21129;BME280;10722;51.910;8.352;2023-07-31T13:56:14;99847.47;;;18.81;100.00
21129;BME280;10722;51.910;8.352;2023-07-31T13:58:59;99837.88;;;18.80;100.00
21129;BME280;10722;51.910;8.352;2023-07-31T14:01:45;99847.75;;;18.70;100.00
21129;BME280;10722;51.910;8.352;2023-07-31T14:04:30;99854.75;;;18.70;100.00
21129;BME280;10722;51.910;8.352;2023-07-31T14:07:15;99852.38;;;18.60;100.00
21129;BME280;10722;51.910;8.352;2023-07-31T14:10:00;99848.81;;;18.63;100.00
21129;BME280;10722;51.910;8.352;2023-07-31T14:12:45;99848.25;;;18.53;100.00
21129;BME280;10722;51.910;8.352;2023-07-31T14:15:31;99842.84;;;18.58;100.00
21129;BME280;10722;51.910;8.352;2023-07-31T14:18:17;99847.63;;;18.44;100.00
21129;BME280;10722;51.910;8.352;2023-07-31T14:21:03;99848.34;;;18.50;100.00